createdAt,value
2017-11-01T00:00:34.741Z,8.61
2017-11-01T00:03:03.077Z,8.66
2017-11-01T00:05:31.424Z,8.66
2017-11-01T00:07:59.756Z,8.57
2017-11-01T00:10:28.089Z,8.61
2017-11-01T00:12:56.456Z,8.71
2017-11-01T00:15:24.780Z,8.68
2017-11-01T00:17:53.099Z,8.59
2017-11-01T00:20:21.886Z,8.57
2017-11-01T00:22:50.224Z,8.61
2017-11-01T00:25:19.500Z,8.68
2017-11-01T00:27:47.826Z,8.75
2017-11-01T00:30:16.214Z,8.72
2017-11-01T00:32:44.544Z,8.72
2017-11-01T00:35:12.871Z,8.66
2017-11-01T00:37:43.119Z,8.71
2017-11-01T00:40:11.436Z,8.60
2017-11-01T00:42:39.786Z,8.54
2017-11-01T00:45:08.121Z,8.56
2017-11-01T00:47:37.233Z,8.56
2017-11-01T00:50:05.564Z,8.57
2017-11-01T00:52:33.879Z,8.62
2017-11-01T00:55:02.975Z,8.62
2017-11-01T00:57:31.296Z,8.69
2017-11-01T00:59:59.626Z,8.66
2017-11-01T01:02:29.856Z,8.55
2017-11-01T01:04:58.956Z,8.60
2017-11-01T01:07:28.213Z,8.51
2017-11-01T01:09:56.528Z,8.47
2017-11-01T01:12:25.845Z,8.42
2017-11-01T01:14:55.130Z,8.40
2017-11-01T01:17:27.853Z,8.39
2017-11-01T01:19:56.174Z,8.36
2017-11-01T01:22:24.983Z,8.33
2017-11-01T01:24:54.498Z,8.26
2017-11-01T01:27:23.797Z,8.29
2017-11-01T01:29:52.148Z,8.42
2017-11-01T01:32:20.543Z,8.32
2017-11-01T01:34:48.947Z,8.26
2017-11-01T01:37:18.228Z,8.28
2017-11-01T01:39:47.562Z,8.34
2017-11-01T01:42:16.012Z,8.35
2017-11-01T01:44:44.333Z,8.27
2017-11-01T01:47:12.673Z,8.17
2017-11-01T01:49:41.842Z,8.15
2017-11-01T01:52:10.189Z,8.29
2017-11-01T01:54:38.737Z,8.28
2017-11-01T01:57:07.815Z,8.18
2017-11-01T01:59:36.935Z,8.01
2017-11-01T02:02:05.399Z,7.88
2017-11-01T02:04:33.757Z,7.82
2017-11-01T02:07:02.082Z,7.76
2017-11-01T02:09:30.573Z,7.72
2017-11-01T02:11:58.927Z,7.61
2017-11-01T02:14:27.234Z,7.75
2017-11-01T02:16:55.555Z,7.63
2017-11-01T02:19:23.906Z,7.54
2017-11-01T02:21:52.267Z,7.41
2017-11-01T02:24:20.592Z,7.43
2017-11-01T02:26:48.956Z,7.37
2017-11-01T02:29:17.281Z,7.27
2017-11-01T02:31:46.386Z,7.15
2017-11-01T02:34:14.734Z,7.26
2017-11-01T02:36:43.098Z,7.32
2017-11-01T02:39:11.450Z,7.15
2017-11-01T02:41:39.838Z,7.06
2017-11-01T02:44:08.188Z,7.12
2017-11-01T02:46:37.282Z,7.02
2017-11-01T02:49:06.338Z,6.97
2017-11-01T02:51:34.700Z,6.98
2017-11-01T02:54:03.007Z,6.97
2017-11-01T02:56:31.354Z,7.08
2017-11-01T02:58:59.681Z,7.16
2017-11-01T03:01:28.799Z,7.18
2017-11-01T03:03:57.170Z,7.02
2017-11-01T03:06:26.251Z,7.04
2017-11-01T03:08:55.170Z,6.84
2017-11-01T03:11:23.490Z,6.81
2017-11-01T03:13:51.813Z,6.91
2017-11-01T03:16:20.919Z,6.93
2017-11-01T03:18:49.246Z,6.92
2017-11-01T03:21:17.586Z,6.89
2017-11-01T03:23:45.908Z,6.97
2017-11-01T03:26:14.312Z,6.92
2017-11-01T03:28:44.048Z,7.01
2017-11-01T03:31:12.368Z,6.88
2017-11-01T03:33:40.707Z,6.81
2017-11-01T03:36:09.826Z,6.91
2017-11-01T03:38:38.154Z,7.06
2017-11-01T03:41:06.478Z,6.99
2017-11-01T03:43:34.810Z,7.06
2017-11-01T03:46:03.146Z,7.14
2017-11-01T03:48:31.463Z,7.14
2017-11-01T03:51:00.690Z,7.02
2017-11-01T03:53:29.013Z,7.03
2017-11-01T03:55:57.362Z,7.07
2017-11-01T03:58:25.689Z,7.07
2017-11-01T04:00:54.053Z,7.03
2017-11-01T04:03:22.809Z,7.06
2017-11-01T04:05:51.127Z,7.00
2017-11-01T04:08:19.467Z,6.94
2017-11-01T04:10:47.790Z,6.85
2017-11-01T04:13:16.130Z,6.74
2017-11-01T04:15:44.435Z,6.75
2017-11-01T04:18:18.261Z,6.56
2017-11-01T04:20:49.383Z,6.52
2017-11-01T04:23:17.709Z,6.50
2017-11-01T04:25:46.847Z,6.63
2017-11-01T04:28:15.165Z,6.59
2017-11-01T04:30:43.521Z,6.50
2017-11-01T04:33:11.844Z,6.51
2017-11-01T04:35:40.169Z,6.50
2017-11-01T04:38:08.479Z,6.58
2017-11-01T04:40:36.788Z,6.49
2017-11-01T04:43:05.880Z,6.35
2017-11-01T04:45:34.266Z,6.38
2017-11-01T04:48:02.609Z,6.37
2017-11-01T04:50:30.932Z,6.39
2017-11-01T04:53:00.325Z,6.50
2017-11-01T04:55:28.664Z,6.24
2017-11-01T04:57:56.992Z,6.14
2017-11-01T05:00:34.559Z,6.30
2017-11-01T05:03:06.005Z,6.31
2017-11-01T05:05:34.353Z,6.20
2017-11-01T05:08:02.672Z,6.25
2017-11-01T05:10:34.814Z,6.13
2017-11-01T05:13:04.037Z,6.02
2017-11-01T05:15:32.375Z,6.04
2017-11-01T05:18:00.695Z,5.93
2017-11-01T05:20:29.042Z,5.91
2017-11-01T05:22:57.394Z,6.05
2017-11-01T05:25:36.209Z,6.13
2017-11-01T05:28:05.307Z,6.00
2017-11-01T05:30:34.395Z,5.96
2017-11-01T05:33:02.723Z,6.01
2017-11-01T05:35:31.057Z,6.09
2017-11-01T05:38:00.975Z,6.22
2017-11-01T05:40:29.305Z,6.21
2017-11-01T05:42:57.635Z,6.22
2017-11-01T05:45:25.963Z,6.18
2017-11-01T05:47:54.275Z,6.14
2017-11-01T05:50:23.379Z,6.15
2017-11-01T05:52:52.464Z,6.10
2017-11-01T05:55:21.069Z,5.95
2017-11-01T05:57:49.409Z,5.86
2017-11-01T06:00:17.728Z,5.78
2017-11-01T06:02:46.058Z,5.77
2017-11-01T06:05:14.366Z,5.79
2017-11-01T06:07:42.707Z,5.86
2017-11-01T06:10:11.024Z,5.87
2017-11-01T06:12:39.819Z,5.77
2017-11-01T06:15:08.140Z,5.64
2017-11-01T06:17:36.470Z,5.65
2017-11-01T06:20:04.804Z,5.76
2017-11-01T06:22:33.126Z,5.60
2017-11-01T06:25:01.468Z,5.59
2017-11-01T06:27:29.802Z,5.72
2017-11-01T06:29:58.182Z,5.61
2017-11-01T06:50:38.193Z,5.39
2017-11-01T06:53:08.011Z,5.48
2017-11-01T06:55:36.619Z,5.43
2017-11-01T07:22:00.642Z,5.52
2017-11-01T07:24:28.990Z,5.53
2017-11-01T07:26:59.389Z,5.54
2017-11-01T07:29:28.211Z,5.64
2017-11-01T07:31:57.280Z,5.66
2017-11-01T07:34:25.644Z,5.77
2017-11-01T07:36:53.944Z,5.83
2017-11-01T07:39:22.299Z,5.93
2017-11-01T07:41:50.643Z,6.04
2017-11-01T07:44:18.967Z,6.17
2017-11-01T07:46:47.278Z,6.25
2017-11-01T07:49:15.578Z,6.40
2017-11-01T08:34:02.666Z,7.60
2017-11-01T08:54:30.374Z,8.00
2017-11-01T09:14:57.784Z,8.46
2017-11-01T09:36:01.222Z,9.09
2017-11-01T09:38:30.018Z,9.17
2017-11-01T09:40:58.283Z,9.23
2017-11-01T09:43:26.593Z,9.25
2017-11-01T09:45:54.865Z,9.22
2017-11-01T09:48:25.056Z,9.29
2017-11-01T09:50:53.336Z,9.37
2017-11-01T09:53:21.602Z,9.40
2017-11-01T09:55:49.895Z,9.47
2017-11-01T09:58:18.174Z,9.55
2017-11-01T10:00:46.475Z,9.60
2017-11-01T10:03:14.805Z,9.64
2017-11-01T10:05:43.070Z,9.73
2017-11-01T10:08:11.487Z,9.73
2017-11-01T10:10:40.149Z,9.79
2017-11-01T10:13:08.433Z,9.88
2017-11-01T10:15:36.694Z,9.94
2017-11-01T10:18:05.027Z,10.00
2017-11-01T10:20:34.075Z,9.99
2017-11-01T10:23:02.359Z,10.07
2017-11-01T10:25:31.149Z,10.12
2017-11-01T10:27:59.433Z,10.20
2017-11-01T10:30:27.711Z,10.37
2017-11-01T10:32:56.007Z,10.42
2017-11-01T10:35:24.279Z,10.46
2017-11-01T10:37:52.567Z,10.49
2017-11-01T10:40:21.559Z,10.39
2017-11-01T10:42:49.814Z,10.39
2017-11-01T10:45:18.088Z,10.50
2017-11-01T10:47:46.769Z,10.69
2017-11-01T10:50:15.060Z,10.83
2017-11-01T10:52:43.341Z,10.82
2017-11-01T10:55:11.652Z,10.96
2017-11-01T10:57:40.681Z,11.04
2017-11-01T11:00:08.999Z,11.03
2017-11-01T11:02:37.255Z,11.11
2017-11-01T11:05:06.300Z,11.09
2017-11-01T11:07:34.584Z,11.10
2017-11-01T11:10:03.811Z,11.18
2017-11-01T11:12:32.119Z,11.30
2017-11-01T11:15:00.532Z,11.35
2017-11-01T11:17:29.586Z,11.42
2017-11-01T11:19:57.865Z,11.44
2017-11-01T11:22:26.145Z,11.50
2017-11-01T11:24:55.183Z,11.51
2017-11-01T11:27:23.455Z,11.57
2017-11-01T11:29:51.723Z,11.69
2017-11-01T11:32:20.017Z,11.74
2017-11-01T11:34:48.389Z,11.76
2017-11-01T11:37:16.712Z,11.80
2017-11-01T11:39:44.971Z,11.82
2017-11-01T11:42:13.295Z,11.91
2017-11-01T11:44:41.568Z,11.99
2017-11-01T11:47:10.451Z,12.10
2017-11-01T11:49:38.736Z,12.14
2017-11-01T11:52:07.012Z,12.15
2017-11-01T11:54:35.323Z,12.18
2017-11-01T11:57:03.588Z,12.24
2017-11-01T11:59:31.906Z,12.30
2017-11-01T12:02:00.182Z,12.33
2017-11-01T12:04:28.447Z,12.42
2017-11-01T12:06:57.472Z,12.45
2017-11-01T12:09:25.772Z,12.51
2017-11-01T12:11:54.037Z,12.53
2017-11-01T12:14:22.330Z,12.63
2017-11-01T12:16:50.607Z,12.66
2017-11-01T12:19:18.874Z,12.71
2017-11-01T12:21:47.154Z,12.75
2017-11-01T12:24:15.418Z,12.79
2017-11-01T12:26:43.696Z,12.85
2017-11-01T12:29:11.956Z,12.89
2017-11-01T12:31:40.246Z,12.93
2017-11-01T12:34:08.523Z,12.98
2017-11-01T12:36:36.790Z,13.00
2017-11-01T12:39:05.893Z,13.09
2017-11-01T12:41:34.264Z,13.15
2017-11-01T12:44:03.306Z,13.14
2017-11-01T12:46:31.910Z,13.18
2017-11-01T12:49:00.186Z,13.23
2017-11-01T12:51:28.445Z,13.25
2017-11-01T12:53:56.761Z,13.25
2017-11-01T12:56:25.787Z,13.25
2017-11-01T12:58:54.069Z,13.25
2017-11-01T13:01:22.361Z,13.32
2017-11-01T13:03:50.726Z,13.33
2017-11-01T13:06:19.840Z,13.37
2017-11-01T13:08:48.126Z,13.37
2017-11-01T13:11:16.428Z,13.41
2017-11-01T13:13:44.697Z,13.47
2017-11-01T13:16:12.964Z,13.54
2017-11-01T13:18:41.223Z,13.54
2017-11-01T13:21:09.526Z,13.55
2017-11-01T13:23:37.889Z,13.59
2017-11-01T13:26:06.183Z,13.66
2017-11-01T13:28:35.562Z,13.70
2017-11-01T13:31:03.821Z,13.69
2017-11-01T13:33:32.522Z,13.66
2017-11-01T13:36:00.808Z,13.69
2017-11-01T13:38:29.084Z,13.71
2017-11-01T13:40:57.350Z,13.72
2017-11-01T13:43:25.633Z,13.73
2017-11-01T13:45:53.888Z,13.74
2017-11-01T13:48:22.185Z,13.67
2017-11-01T13:50:50.448Z,13.71
2017-11-01T13:53:18.746Z,13.70
2017-11-01T13:55:47.026Z,13.70
2017-11-01T13:58:15.310Z,13.73
2017-11-01T14:00:43.572Z,13.75
2017-11-01T14:03:11.870Z,13.77
2017-11-01T14:05:40.144Z,13.78
2017-11-01T14:08:08.426Z,13.78
2017-11-01T14:10:37.614Z,13.79
2017-11-01T14:13:05.875Z,13.78
2017-11-01T14:15:34.242Z,13.81
2017-11-01T14:18:02.600Z,13.84
2017-11-01T14:20:32.046Z,13.85
2017-11-01T14:23:00.351Z,13.88
2017-11-01T14:25:28.622Z,13.94
2017-11-01T14:27:56.911Z,13.95
2017-11-01T14:30:25.172Z,13.96
2017-11-01T14:32:53.493Z,13.98
2017-11-01T14:35:22.597Z,14.02
2017-11-01T14:37:50.894Z,13.99
2017-11-01T14:40:19.166Z,13.99
2017-11-01T14:42:47.498Z,13.97
2017-11-01T14:45:15.774Z,13.93
2017-11-01T14:47:44.359Z,13.88
2017-11-01T14:50:12.646Z,13.81
2017-11-01T14:52:40.921Z,13.83
2017-11-01T14:55:09.202Z,13.82
2017-11-01T14:57:38.250Z,13.84
2017-11-01T15:00:06.532Z,13.81
2017-11-01T15:02:34.839Z,13.76
2017-11-01T15:05:03.122Z,13.70
2017-11-01T15:07:31.660Z,13.65
2017-11-01T15:10:01.799Z,13.57
2017-11-01T15:12:30.110Z,13.50
2017-11-01T15:14:58.434Z,13.44
2017-11-01T15:17:26.730Z,13.35
2017-11-01T15:19:55.458Z,13.26
2017-11-01T15:22:23.758Z,13.19
2017-11-01T15:24:52.059Z,13.17
2017-11-01T15:27:20.403Z,13.11
2017-11-01T15:29:50.193Z,13.08
2017-11-01T15:32:18.552Z,13.00
2017-11-01T15:34:46.959Z,12.93
2017-11-01T15:37:15.495Z,12.88
2017-11-01T15:39:43.834Z,12.72
2017-11-01T15:42:12.181Z,12.66
2017-11-01T15:44:40.497Z,12.58
2017-11-01T15:47:09.870Z,12.52
2017-11-01T15:49:38.216Z,12.43
2017-11-01T15:52:06.514Z,12.41
2017-11-01T15:54:34.877Z,12.29
2017-11-01T15:57:03.212Z,12.22
2017-11-01T15:59:31.885Z,11.99
2017-11-01T16:02:00.172Z,11.89
2017-11-01T16:04:28.553Z,11.87
2017-11-01T16:06:57.032Z,11.88
2017-11-01T16:09:25.519Z,11.83
2017-11-01T16:11:53.805Z,11.77
2017-11-01T16:14:22.105Z,11.73
2017-11-01T16:16:50.437Z,11.63
2017-11-01T16:19:18.725Z,11.59
2017-11-01T16:21:47.004Z,11.54
2017-11-01T16:24:15.298Z,11.44
2017-11-01T16:26:43.579Z,11.38
2017-11-01T16:29:11.864Z,11.27
2017-11-01T16:31:40.915Z,11.16
2017-11-01T16:34:09.218Z,11.08
2017-11-01T16:36:37.508Z,11.06
2017-11-01T16:39:05.778Z,11.02
2017-11-01T16:41:34.052Z,10.83
2017-11-01T16:44:02.339Z,10.85
2017-11-01T16:46:30.640Z,10.82
2017-11-01T16:48:58.909Z,10.78
2017-11-01T16:51:28.049Z,10.77
2017-11-01T16:53:56.323Z,10.69
2017-11-01T16:56:24.631Z,10.60
2017-11-01T16:58:52.938Z,10.57
2017-11-01T17:01:21.211Z,10.54
2017-11-01T17:03:49.501Z,10.48
2017-11-01T17:06:18.562Z,10.47
2017-11-01T17:08:46.852Z,10.44
2017-11-01T17:11:15.142Z,10.42
2017-11-01T17:13:43.486Z,10.37
2017-11-01T17:16:12.300Z,10.24
2017-11-01T17:18:40.627Z,10.01
2017-11-01T17:21:08.981Z,10.10
2017-11-01T17:23:37.724Z,10.06
2017-11-01T17:26:06.040Z,9.94
2017-11-01T17:28:34.326Z,9.94
2017-11-01T17:31:03.369Z,9.95
2017-11-01T17:33:31.691Z,9.84
2017-11-01T17:35:59.952Z,9.67
2017-11-01T17:38:28.419Z,9.75
2017-11-01T17:40:56.707Z,9.74
2017-11-01T17:43:24.973Z,9.77
2017-11-01T17:45:53.286Z,9.73
2017-11-01T17:48:21.567Z,9.57
2017-11-01T17:50:50.604Z,9.58
2017-11-01T17:53:18.885Z,9.61
2017-11-01T17:55:47.237Z,9.51
2017-11-01T17:58:15.915Z,9.59
2017-11-01T18:00:44.218Z,9.47
2017-11-01T18:03:12.492Z,9.36
2017-11-01T18:05:41.424Z,9.38
2017-11-01T18:08:09.708Z,9.26
2017-11-01T18:10:38.735Z,9.10
2017-11-01T18:13:07.056Z,9.18
2017-11-01T18:15:35.323Z,9.03
2017-11-01T18:18:03.622Z,9.11
2017-11-01T18:20:32.311Z,9.18
2017-11-01T18:23:00.591Z,9.06
2017-11-01T18:25:28.931Z,9.08
2017-11-01T18:27:57.194Z,9.02
2017-11-01T18:30:29.731Z,8.94
2017-11-01T18:32:58.036Z,8.95
2017-11-01T18:35:26.315Z,8.98
2017-11-01T18:37:55.311Z,8.90
2017-11-01T18:40:24.036Z,8.87
2017-11-01T18:42:52.325Z,8.72
2017-11-01T18:45:21.044Z,8.78
2017-11-01T18:47:49.338Z,8.70
2017-11-01T18:50:17.601Z,8.70
2017-11-01T18:52:45.885Z,8.78
2017-11-01T18:55:14.247Z,8.66
2017-11-01T18:57:43.207Z,8.68
2017-11-01T19:00:11.533Z,8.71
2017-11-01T19:02:40.471Z,8.66
2017-11-01T19:05:09.500Z,8.66
2017-11-01T19:07:37.795Z,8.57
2017-11-01T19:10:06.086Z,8.42
2017-11-01T19:12:34.848Z,8.45
2017-11-01T19:15:03.213Z,8.54
2017-11-01T19:17:31.524Z,8.54
2017-11-01T19:20:00.282Z,8.53
2017-11-01T19:22:30.305Z,8.42
2017-11-01T19:24:58.737Z,8.42
2017-11-01T19:27:27.042Z,8.42
2017-11-01T19:29:55.297Z,8.39
2017-11-01T19:32:27.451Z,8.43
2017-11-01T19:34:56.634Z,8.47
2017-11-01T19:37:25.782Z,8.31
2017-11-01T19:39:54.194Z,8.15
2017-11-01T19:42:22.460Z,8.28
2017-11-01T19:44:50.759Z,8.24
2017-11-01T19:47:19.113Z,8.26
2017-11-01T19:49:51.187Z,8.36
2017-11-01T19:52:29.078Z,8.25
2017-11-01T19:54:57.510Z,8.14
2017-11-01T19:57:25.913Z,8.10
2017-11-01T19:59:54.656Z,8.03
2017-11-01T20:02:22.987Z,8.01
2017-11-01T20:04:52.686Z,8.10
2017-11-01T20:07:21.078Z,8.08
2017-11-01T20:09:50.380Z,7.91
2017-11-01T20:12:23.337Z,7.82
2017-11-01T20:14:52.418Z,7.83
2017-11-01T20:17:21.497Z,7.90
2017-11-01T20:19:50.720Z,7.94
2017-11-01T20:22:19.205Z,7.96
2017-11-01T20:24:48.010Z,8.06
2017-11-01T20:27:17.570Z,7.97
2017-11-01T20:29:46.017Z,7.95
2017-11-01T20:32:14.333Z,7.89
2017-11-01T20:34:42.687Z,8.04
2017-11-01T20:37:12.009Z,7.87
2017-11-01T20:39:40.278Z,7.88
2017-11-01T20:42:08.588Z,7.76
2017-11-01T20:44:36.873Z,7.73
2017-11-01T20:47:05.163Z,7.87
2017-11-01T20:49:34.056Z,7.74
2017-11-01T20:52:03.969Z,7.74
2017-11-01T20:54:33.053Z,7.82
2017-11-01T20:57:01.722Z,7.76
2017-11-01T20:59:30.021Z,7.64
2017-11-01T21:01:58.284Z,7.61
2017-11-01T21:04:26.560Z,7.62
2017-11-01T21:06:55.264Z,7.66
2017-11-01T21:09:23.604Z,7.66
2017-11-01T21:11:51.896Z,7.73
2017-11-01T21:14:20.229Z,7.60
2017-11-01T21:16:50.130Z,7.55
2017-11-01T21:19:18.403Z,7.59
2017-11-01T21:21:46.690Z,7.64
2017-11-01T21:24:15.431Z,7.71
2017-11-01T21:26:43.727Z,7.77
2017-11-01T21:29:12.015Z,7.62
2017-11-01T21:31:40.305Z,7.52
2017-11-01T21:34:08.596Z,7.62
2017-11-01T21:36:36.873Z,7.62
2017-11-01T21:39:05.723Z,7.53
2017-11-01T21:41:34.029Z,7.46
2017-11-01T21:44:02.310Z,7.59
2017-11-01T21:46:30.607Z,7.64
2017-11-01T21:48:59.658Z,7.55
2017-11-01T21:51:27.934Z,7.45
2017-11-01T21:53:56.387Z,7.48
2017-11-01T21:56:24.658Z,7.43
2017-11-01T21:58:52.933Z,7.50
2017-11-01T22:01:21.192Z,7.59
2017-11-01T22:03:50.235Z,7.39
2017-11-01T22:06:18.537Z,7.32
2017-11-01T22:08:46.870Z,7.29
2017-11-01T22:11:15.283Z,7.42
2017-11-01T22:13:44.085Z,7.43
2017-11-01T22:16:12.398Z,7.52
2017-11-01T22:18:41.426Z,7.50
2017-11-01T22:21:10.132Z,7.39
2017-11-01T22:23:38.410Z,7.43
2017-11-01T22:26:06.671Z,7.47
2017-11-01T22:28:34.958Z,7.37
2017-11-01T22:31:03.245Z,7.40
2017-11-01T22:33:31.534Z,7.36
2017-11-01T22:35:59.805Z,7.28
2017-11-01T22:38:28.063Z,7.26
2017-11-01T22:40:56.374Z,7.25
2017-11-01T22:43:24.645Z,7.31
2017-11-01T22:45:52.918Z,7.33
2017-11-01T22:48:21.206Z,7.33
2017-11-01T22:50:49.479Z,7.44
2017-11-01T22:53:17.752Z,7.39
2017-11-01T22:55:46.030Z,7.27
2017-11-01T22:58:14.823Z,7.22
2017-11-01T23:00:43.593Z,7.22
2017-11-01T23:03:11.889Z,7.21
2017-11-01T23:05:40.993Z,7.31
2017-11-01T23:08:09.278Z,7.38
2017-11-01T23:10:37.523Z,7.16
2017-11-01T23:13:05.802Z,7.08
2017-11-01T23:15:34.855Z,7.16
2017-11-01T23:18:03.130Z,7.11
2017-11-01T23:20:32.157Z,7.08
2017-11-01T23:23:00.447Z,7.11
2017-11-01T23:25:28.718Z,7.12
2017-11-01T23:27:56.972Z,7.13
2017-11-01T23:30:25.245Z,7.07
2017-11-01T23:32:53.495Z,7.00
2017-11-01T23:35:21.789Z,7.14
2017-11-01T23:37:50.912Z,7.05
2017-11-01T23:40:19.172Z,7.01
2017-11-01T23:42:47.467Z,7.09
2017-11-01T23:45:15.763Z,7.12
2017-11-01T23:47:44.096Z,6.99
2017-11-01T23:50:12.408Z,6.86
2017-11-01T23:52:40.706Z,6.90
2017-11-01T23:55:09.009Z,6.87
2017-11-01T23:57:37.282Z,6.90
